createdAt,value
2022-12-03T00:02:16.203Z,16.40
2022-12-03T00:05:05.053Z,17.70
2022-12-03T00:07:53.650Z,18.73
2022-12-03T00:10:42.199Z,17.03
2022-12-03T00:13:30.666Z,16.97
2022-12-03T00:16:19.224Z,16.70
2022-12-03T00:19:09.081Z,17.50
2022-12-03T00:21:57.613Z,18.27
2022-12-03T00:24:46.094Z,17.13
2022-12-03T00:27:34.527Z,18.80
2022-12-03T00:30:22.981Z,16.50
2022-12-03T00:33:11.444Z,17.93
2022-12-03T00:36:01.264Z,17.93
2022-12-03T00:38:49.783Z,18.00
2022-12-03T00:41:38.282Z,17.53
2022-12-03T00:44:27.038Z,16.27
2022-12-03T00:47:15.530Z,17.37
2022-12-03T00:50:03.995Z,17.80
2022-12-03T00:52:53.830Z,17.73
2022-12-03T00:55:42.251Z,17.73
2022-12-03T00:58:30.723Z,18.83
2022-12-03T01:01:19.192Z,18.40
2022-12-03T01:04:07.776Z,18.13
2022-12-03T01:06:56.211Z,18.60
2022-12-03T01:09:46.040Z,18.03
2022-12-03T01:12:34.488Z,17.10
2022-12-03T01:15:22.947Z,16.93
2022-12-03T01:18:11.491Z,19.63
2022-12-03T01:20:59.954Z,18.83
2022-12-03T01:23:48.446Z,17.00
2022-12-03T01:26:38.421Z,18.63
2022-12-03T01:29:26.854Z,18.37
2022-12-03T01:32:17.017Z,17.03
2022-12-03T01:35:06.111Z,17.77
2022-12-03T01:37:54.553Z,18.63
2022-12-03T01:40:43.028Z,16.70
2022-12-03T01:43:32.912Z,18.00
2022-12-03T01:46:23.831Z,17.10
2022-12-03T01:49:16.564Z,17.80
2022-12-03T01:52:05.125Z,16.13
2022-12-03T01:54:56.164Z,20.13
2022-12-03T01:57:46.767Z,16.20
2022-12-03T02:00:36.593Z,17.87
2022-12-03T02:03:26.635Z,16.80
2022-12-03T02:06:17.333Z,16.80
2022-12-03T02:09:08.478Z,17.87
2022-12-03T02:11:56.904Z,17.07
2022-12-03T02:14:45.458Z,17.90
2022-12-03T02:17:35.357Z,17.50
2022-12-03T02:20:23.888Z,16.67
2022-12-03T02:23:15.170Z,15.90
2022-12-03T02:26:05.330Z,16.70
2022-12-03T02:28:53.793Z,15.57
2022-12-03T02:31:43.372Z,17.77
2022-12-03T02:34:39.549Z,16.47
2022-12-03T02:37:31.019Z,16.70
2022-12-03T02:40:21.409Z,17.43
2022-12-03T02:43:11.594Z,17.63
2022-12-03T02:46:01.244Z,17.63
2022-12-03T02:48:49.688Z,16.33
2022-12-03T02:51:38.119Z,15.70
2022-12-03T02:54:26.776Z,16.80
2022-12-03T02:57:16.082Z,15.97
2022-12-03T03:00:08.421Z,15.30
2022-12-03T03:02:56.905Z,17.20
2022-12-03T03:05:46.229Z,16.13
2022-12-03T03:08:35.139Z,15.43
2022-12-03T03:11:23.723Z,15.40
2022-12-03T03:14:12.280Z,16.50
2022-12-03T03:17:02.082Z,16.07
2022-12-03T03:19:50.523Z,16.00
2022-12-03T03:22:40.423Z,15.53
2022-12-03T03:25:29.762Z,15.87
2022-12-03T03:28:19.296Z,16.30
2022-12-03T03:31:09.530Z,15.70
2022-12-03T03:33:59.399Z,16.17
2022-12-03T03:36:47.961Z,17.40
2022-12-03T03:39:36.420Z,15.33
2022-12-03T03:42:25.202Z,16.20
2022-12-03T03:45:13.812Z,17.53
2022-12-03T03:48:02.531Z,15.83
2022-12-03T03:50:52.628Z,15.63
2022-12-03T03:53:43.052Z,15.73
2022-12-03T03:56:31.709Z,16.63
2022-12-03T03:59:20.247Z,18.00
2022-12-03T04:02:17.575Z,17.07
2022-12-03T04:05:07.401Z,16.40
2022-12-03T04:07:58.670Z,17.27
2022-12-03T04:11:04.908Z,16.73
2022-12-03T04:13:53.373Z,15.90
2022-12-03T04:16:41.938Z,17.50
2022-12-03T04:19:30.510Z,17.73
2022-12-03T04:22:36.661Z,17.57
2022-12-03T04:25:44.111Z,16.30
2022-12-03T04:28:50.868Z,18.33
2022-12-03T04:31:57.163Z,16.63
2022-12-03T04:35:03.413Z,16.97
2022-12-03T04:37:51.966Z,17.20
2022-12-03T04:40:59.579Z,17.43
2022-12-03T04:44:01.922Z,17.30
2022-12-03T04:46:50.384Z,17.20
2022-12-03T04:49:40.308Z,17.43
2022-12-03T04:52:28.739Z,17.27
2022-12-03T04:55:17.242Z,18.30
2022-12-03T04:58:07.038Z,16.47
2022-12-03T05:00:55.543Z,15.80
2022-12-03T05:03:44.027Z,16.87
2022-12-03T05:06:32.472Z,16.43
2022-12-03T05:09:21.003Z,18.10
2022-12-03T05:12:09.477Z,17.17
2022-12-03T05:14:59.301Z,17.50
2022-12-03T05:17:47.807Z,16.63
2022-12-03T05:20:51.536Z,18.43
2022-12-03T05:23:41.588Z,17.47
2022-12-03T05:26:30.070Z,18.70
2022-12-03T05:29:18.544Z,17.10
2022-12-03T05:32:08.769Z,17.63
2022-12-03T05:34:57.347Z,19.27
2022-12-03T05:37:45.868Z,17.70
2022-12-03T05:40:34.292Z,18.10
2022-12-03T05:43:21.735Z,19.17
2022-12-03T05:46:10.220Z,19.43
2022-12-03T05:49:00.046Z,19.53
2022-12-03T05:51:51.425Z,20.10
2022-12-03T05:54:42.123Z,18.20
2022-12-03T05:57:30.618Z,19.40
2022-12-03T06:00:21.128Z,20.10
2022-12-03T06:03:09.781Z,18.30
2022-12-03T06:05:59.842Z,18.77
2022-12-03T06:08:48.300Z,20.60
2022-12-03T06:11:37.250Z,20.90
2022-12-03T06:14:25.678Z,20.37
2022-12-03T06:17:14.118Z,18.57
2022-12-03T06:20:02.569Z,19.77
2022-12-03T06:22:52.400Z,19.90
2022-12-03T06:25:40.854Z,20.10
2022-12-03T06:28:29.295Z,22.97
2022-12-03T06:31:17.890Z,19.43
2022-12-03T06:34:06.430Z,20.93
2022-12-03T06:36:54.879Z,22.00
2022-12-03T06:39:44.649Z,21.63
2022-12-03T06:42:33.090Z,21.70
2022-12-03T06:45:21.618Z,22.27
2022-12-03T06:48:10.046Z,21.30
2022-12-03T06:50:58.546Z,22.47
2022-12-03T06:53:47.012Z,20.93
2022-12-03T06:56:43.543Z,25.17
2022-12-03T06:59:36.370Z,22.73
2022-12-03T07:02:25.071Z,23.30
2022-12-03T07:05:13.541Z,24.87
2022-12-03T07:08:02.131Z,24.90
2022-12-03T07:10:50.679Z,27.87
2022-12-03T07:13:40.468Z,23.67
2022-12-03T07:16:29.450Z,23.10
2022-12-03T07:19:17.996Z,25.47
2022-12-03T07:22:06.731Z,25.20
2022-12-03T07:24:55.551Z,22.90
2022-12-03T07:27:44.130Z,26.00
2022-12-03T07:30:33.952Z,23.90
2022-12-03T07:33:22.425Z,27.10
2022-12-03T07:36:11.267Z,26.70
2022-12-03T07:38:59.755Z,25.50
2022-12-03T07:41:48.234Z,24.20
2022-12-03T07:44:36.771Z,25.40
2022-12-03T07:47:26.563Z,25.43
2022-12-03T07:50:15.214Z,24.30
2022-12-03T07:53:03.696Z,24.57
2022-12-03T07:55:52.301Z,24.57
2022-12-03T07:58:40.798Z,26.20
2022-12-03T08:01:29.338Z,25.70
2022-12-03T08:04:21.222Z,25.80
2022-12-03T08:07:09.837Z,27.63
2022-12-03T08:10:00.489Z,27.33
2022-12-03T08:12:48.937Z,26.57
2022-12-03T08:15:39.650Z,27.30
2022-12-03T08:18:29.181Z,25.90
2022-12-03T08:21:20.701Z,25.50
2022-12-03T08:24:14.617Z,26.43
2022-12-03T08:27:03.100Z,27.30
2022-12-03T08:29:51.555Z,29.53
2022-12-03T08:32:40.463Z,27.07
2022-12-03T08:35:31.798Z,28.13
2022-12-03T08:38:23.415Z,27.27
2022-12-03T08:41:14.269Z,26.73
2022-12-03T08:44:10.159Z,27.83
2022-12-03T08:47:03.242Z,28.30
2022-12-03T08:49:55.387Z,27.53
2022-12-03T08:52:43.866Z,26.77
2022-12-03T08:55:36.523Z,26.70
2022-12-03T08:58:26.524Z,27.30
2022-12-03T09:01:38.593Z,26.87
2022-12-03T09:04:32.724Z,28.07
2022-12-03T09:07:21.261Z,27.37
2022-12-03T09:10:10.478Z,26.90
2022-12-03T09:13:00.290Z,27.57
2022-12-03T09:15:49.051Z,28.00
2022-12-03T09:18:37.527Z,29.33
2022-12-03T09:21:26.009Z,27.97
2022-12-03T09:24:14.551Z,28.70
2022-12-03T09:27:03.021Z,27.33
2022-12-03T09:29:52.853Z,29.37
2022-12-03T09:32:41.303Z,27.33
2022-12-03T09:35:29.825Z,29.20
2022-12-03T09:38:18.286Z,27.77
2022-12-03T09:41:06.930Z,28.13
2022-12-03T09:44:04.450Z,29.30
2022-12-03T09:46:54.926Z,27.57
2022-12-03T09:49:43.859Z,25.87
2022-12-03T09:52:33.920Z,29.13
2022-12-03T09:55:24.441Z,28.50
2022-12-03T09:58:15.849Z,29.40
2022-12-03T10:01:10.557Z,29.30
2022-12-03T10:04:00.448Z,28.67
2022-12-03T10:06:49.256Z,30.40
2022-12-03T10:09:37.970Z,28.43
2022-12-03T10:12:26.615Z,26.90
2022-12-03T10:15:17.418Z,29.40
2022-12-03T10:18:17.357Z,30.20
2022-12-03T10:21:14.249Z,28.10
2022-12-03T10:24:23.348Z,27.23
2022-12-03T10:27:22.853Z,26.87
2022-12-03T10:30:19.882Z,28.63
2022-12-03T10:33:18.656Z,28.57
2022-12-03T10:36:23.208Z,26.13
2022-12-03T10:39:14.267Z,28.03
2022-12-03T10:42:15.247Z,28.30
2022-12-03T10:45:15.321Z,29.07
2022-12-03T10:48:07.417Z,28.50
2022-12-03T10:50:57.033Z,27.70
2022-12-03T10:53:46.859Z,25.73
2022-12-03T10:56:35.319Z,28.33
2022-12-03T10:59:26.010Z,29.30
2022-12-03T11:02:21.976Z,26.17
2022-12-03T11:05:14.929Z,29.07
2022-12-03T11:08:05.178Z,29.77
2022-12-03T11:10:59.864Z,29.37
2022-12-03T11:13:51.436Z,28.00
2022-12-03T11:17:10.115Z,26.40
2022-12-03T11:19:59.136Z,28.03
2022-12-03T11:22:48.795Z,28.57
2022-12-03T11:25:50.210Z,26.23
2022-12-03T11:28:52.369Z,27.13
2022-12-03T11:31:42.732Z,25.50
2022-12-03T11:34:49.103Z,25.63
2022-12-03T11:37:37.648Z,25.07
2022-12-03T11:40:30.653Z,26.50
2022-12-03T11:43:53.908Z,25.33
2022-12-03T11:46:46.003Z,25.87
2022-12-03T11:49:48.682Z,25.60
2022-12-03T11:52:43.569Z,26.97
2022-12-03T11:55:34.637Z,26.33
2022-12-03T11:58:27.251Z,27.80
2022-12-03T12:01:17.016Z,28.90
2022-12-03T12:04:07.757Z,25.83
2022-12-03T12:07:00.045Z,26.03
2022-12-03T12:09:50.571Z,26.17
2022-12-03T12:12:40.798Z,24.93
2022-12-03T12:15:45.211Z,23.83
2022-12-03T12:18:42.001Z,23.23
2022-12-03T12:21:43.173Z,24.27
2022-12-03T12:24:41.265Z,24.13
2022-12-03T12:27:39.284Z,23.40
2022-12-03T12:30:27.798Z,24.23
2022-12-03T12:33:20.812Z,26.70
2022-12-03T12:36:10.702Z,24.87
2022-12-03T12:39:01.241Z,24.43
2022-12-03T12:41:50.211Z,23.83
2022-12-03T12:44:38.920Z,23.73
2022-12-03T12:47:27.846Z,23.27
2022-12-03T12:50:17.129Z,21.67
2022-12-03T12:53:13.431Z,22.30
2022-12-03T12:56:21.675Z,21.60
2022-12-03T12:59:12.506Z,21.10
2022-12-03T13:02:04.501Z,17.53
2022-12-03T13:04:57.158Z,19.10
2022-12-03T13:07:45.921Z,19.63
2022-12-03T13:10:37.973Z,18.80
2022-12-03T13:13:36.316Z,18.30
2022-12-03T13:16:33.054Z,18.50
2022-12-03T13:19:23.753Z,18.80
2022-12-03T13:22:14.547Z,20.83
2022-12-03T13:25:57.787Z,20.37
2022-12-03T13:28:38.458Z,22.37
2022-12-03T13:31:29.438Z,21.07
2022-12-03T13:34:20.853Z,21.57
2022-12-03T13:37:14.353Z,19.93
2022-12-03T13:40:12.799Z,21.20
2022-12-03T13:43:01.311Z,22.17
2022-12-03T13:45:52.346Z,20.80
2022-12-03T13:48:43.140Z,20.80
2022-12-03T13:51:33.390Z,20.87
2022-12-03T13:54:23.701Z,20.80
2022-12-03T13:57:12.204Z,20.47
2022-12-03T14:00:00.697Z,20.30
2022-12-03T14:02:50.783Z,19.97
2022-12-03T14:05:39.347Z,20.80
2022-12-03T14:08:27.837Z,20.43
2022-12-03T14:11:30.254Z,20.80
2022-12-03T14:14:18.974Z,21.97
2022-12-03T14:17:09.559Z,21.13
2022-12-03T14:20:00.936Z,19.60
2022-12-03T14:22:49.463Z,20.60
2022-12-03T14:25:37.967Z,20.03
2022-12-03T14:28:26.420Z,20.70
2022-12-03T14:31:15.000Z,18.53
2022-12-03T14:34:03.482Z,20.03
2022-12-03T14:36:53.323Z,20.60
2022-12-03T14:39:57.467Z,21.70
2022-12-03T14:42:46.265Z,20.50
2022-12-03T14:45:34.743Z,21.50
2022-12-03T14:48:23.261Z,19.13
2022-12-03T14:51:12.561Z,20.23
2022-12-03T14:54:02.579Z,22.43
2022-12-03T14:56:51.359Z,19.63
2022-12-03T14:59:40.621Z,21.97
2022-12-03T15:02:30.264Z,22.00
2022-12-03T15:05:28.000Z,21.00
2022-12-03T15:08:18.323Z,20.83
2022-12-03T15:11:08.452Z,20.90
2022-12-03T15:13:58.289Z,20.37
2022-12-03T15:16:46.905Z,21.40
2022-12-03T15:19:35.746Z,20.70
2022-12-03T15:22:24.211Z,18.57
2022-12-03T15:25:13.039Z,21.00
2022-12-03T15:28:05.436Z,23.63
2022-12-03T15:30:54.801Z,25.33
2022-12-03T15:33:43.399Z,22.20
2022-12-03T15:36:32.733Z,23.07
2022-12-03T15:39:22.099Z,24.97
2022-12-03T15:42:12.584Z,23.23
2022-12-03T15:45:09.525Z,22.57
2022-12-03T15:48:02.122Z,26.30
2022-12-03T15:50:51.393Z,24.67
2022-12-03T15:53:40.086Z,25.57
2022-12-03T15:56:30.216Z,24.03
2022-12-03T15:59:18.672Z,25.47
2022-12-03T16:02:09.664Z,26.90
2022-12-03T16:04:59.421Z,23.10
2022-12-03T16:07:48.072Z,25.20
2022-12-03T16:10:36.574Z,25.20
2022-12-03T16:13:25.099Z,27.20
2022-12-03T16:16:13.664Z,27.40
2022-12-03T16:19:03.592Z,25.60
2022-12-03T16:21:52.036Z,23.40
2022-12-03T16:24:40.816Z,22.50
2022-12-03T16:27:29.366Z,25.00
2022-12-03T16:30:18.346Z,25.03
2022-12-03T16:33:06.838Z,23.50
2022-12-03T16:35:57.103Z,25.43
2022-12-03T16:38:45.577Z,24.50
2022-12-03T16:41:34.600Z,26.97
2022-12-03T16:44:32.502Z,27.50
2022-12-03T16:47:21.695Z,25.10
2022-12-03T16:50:17.939Z,22.60
2022-12-03T16:53:10.959Z,25.20
2022-12-03T16:55:59.417Z,25.03
2022-12-03T16:58:47.976Z,27.00
2022-12-03T17:01:36.519Z,24.60
2022-12-03T17:04:25.142Z,26.27
2022-12-03T17:07:14.105Z,25.30
2022-12-03T17:10:04.732Z,24.80
2022-12-03T17:13:10.093Z,26.60
2022-12-03T17:16:00.694Z,27.03
2022-12-03T17:18:49.197Z,21.70
2022-12-03T17:21:37.684Z,23.90
2022-12-03T17:24:26.233Z,25.97
2022-12-03T17:27:16.089Z,23.57
2022-12-03T17:30:08.000Z,23.97
2022-12-03T17:32:56.479Z,25.63
2022-12-03T17:35:45.848Z,25.23
2022-12-03T17:38:39.082Z,25.33
2022-12-03T17:41:28.051Z,25.87
2022-12-03T17:44:20.958Z,22.33
2022-12-03T17:47:09.916Z,24.10
2022-12-03T17:49:58.356Z,24.50
2022-12-03T17:52:46.836Z,21.83
2022-12-03T17:55:41.258Z,23.63
2022-12-03T17:58:32.974Z,22.60
2022-12-03T18:01:22.871Z,23.60
2022-12-03T18:04:11.493Z,23.03
2022-12-03T18:07:02.341Z,24.40
2022-12-03T18:09:51.473Z,24.33
2022-12-03T18:12:40.458Z,24.73
2022-12-03T18:15:28.974Z,25.00
2022-12-03T18:18:18.811Z,24.73
2022-12-03T18:21:07.568Z,22.47
2022-12-03T18:23:56.237Z,24.87
2022-12-03T18:26:45.059Z,24.90
2022-12-03T18:29:33.651Z,22.73
2022-12-03T18:32:30.118Z,25.90
2022-12-03T18:35:20.675Z,22.60
2022-12-03T18:38:11.183Z,24.60
2022-12-03T18:40:59.630Z,23.13
2022-12-03T18:43:48.175Z,25.23
2022-12-03T18:46:53.128Z,24.33
2022-12-03T18:49:42.276Z,23.30
2022-12-03T18:52:32.151Z,26.10
2022-12-03T18:55:20.663Z,25.33
2022-12-03T18:58:09.154Z,26.50
2022-12-03T19:00:57.666Z,23.30
2022-12-03T19:03:46.514Z,23.33
2022-12-03T19:06:35.006Z,23.33
2022-12-03T19:09:24.926Z,22.30
2022-12-03T19:12:14.848Z,22.87
2022-12-03T19:15:04.857Z,22.07
2022-12-03T19:17:53.389Z,23.27
2022-12-03T19:20:42.376Z,23.47
2022-12-03T19:23:30.885Z,20.57
2022-12-03T19:26:20.726Z,23.17
2022-12-03T19:29:10.649Z,25.63
2022-12-03T19:31:59.218Z,28.03
2022-12-03T19:34:47.679Z,24.07
2022-12-03T19:37:36.345Z,23.33
2022-12-03T19:40:24.798Z,25.43
2022-12-03T19:43:14.621Z,22.73
2022-12-03T19:46:04.283Z,28.47
2022-12-03T19:48:52.906Z,25.47
2022-12-03T19:51:41.360Z,22.50
2022-12-03T19:54:29.852Z,23.07
2022-12-03T19:57:23.299Z,24.50
2022-12-03T20:00:15.519Z,22.13
2022-12-03T20:03:04.317Z,23.50
2022-12-03T20:05:53.048Z,23.73
2022-12-03T20:08:41.588Z,24.13
2022-12-03T20:11:32.443Z,24.20
2022-12-03T20:14:21.384Z,23.60
2022-12-03T20:17:11.365Z,24.37
2022-12-03T20:19:59.969Z,25.00
2022-12-03T20:22:48.507Z,22.80
2022-12-03T20:25:37.626Z,24.50
2022-12-03T20:28:26.677Z,22.47
2022-12-03T20:31:16.977Z,24.73
2022-12-03T20:34:07.108Z,23.30
2022-12-03T20:36:55.786Z,26.10
2022-12-03T20:39:44.547Z,25.67
2022-12-03T20:42:33.089Z,24.90
2022-12-03T20:45:21.565Z,24.77
2022-12-03T20:48:10.167Z,25.23
2022-12-03T20:51:00.031Z,24.17
2022-12-03T20:53:48.637Z,24.73
2022-12-03T20:56:39.336Z,24.50
2022-12-03T20:59:27.951Z,24.67
2022-12-03T21:02:16.649Z,24.67
2022-12-03T21:05:05.852Z,24.77
2022-12-03T21:07:55.794Z,24.57
2022-12-03T21:10:46.965Z,23.50
2022-12-03T21:13:41.130Z,24.77
2022-12-03T21:17:05.831Z,25.60
2022-12-03T21:19:40.069Z,24.20
2022-12-03T21:22:28.567Z,25.60
2022-12-03T21:25:18.803Z,25.83
2022-12-03T21:28:09.123Z,23.23
2022-12-03T21:31:01.335Z,24.43
2022-12-03T21:33:50.101Z,25.20
2022-12-03T21:36:38.601Z,24.47
2022-12-03T21:39:27.102Z,23.60
2022-12-03T21:42:34.328Z,23.53
2022-12-03T21:45:26.280Z,25.20
2022-12-03T21:48:14.931Z,23.20
2022-12-03T21:51:05.326Z,24.40
2022-12-03T21:53:54.553Z,23.23
2022-12-03T21:56:43.049Z,24.20
2022-12-03T21:59:33.215Z,26.33
2022-12-03T22:02:21.869Z,24.50
2022-12-03T22:05:14.107Z,22.73
2022-12-03T22:08:02.773Z,23.30
2022-12-03T22:10:51.330Z,23.33
2022-12-03T22:13:40.334Z,21.93
2022-12-03T22:16:30.245Z,21.87
2022-12-03T22:19:18.871Z,25.97
2022-12-03T22:22:07.318Z,23.23
2022-12-03T22:24:55.795Z,25.73
2022-12-03T22:27:44.253Z,23.40
2022-12-03T22:30:32.808Z,24.70
2022-12-03T22:33:22.881Z,22.00
2022-12-03T22:36:20.611Z,22.53
2022-12-03T22:39:10.225Z,24.83
2022-12-03T22:41:58.737Z,21.50
2022-12-03T22:44:47.158Z,21.83
2022-12-03T22:47:35.710Z,20.50
2022-12-03T22:50:25.522Z,22.73
2022-12-03T22:53:14.877Z,21.30
2022-12-03T22:56:03.341Z,19.93
2022-12-03T22:58:52.093Z,20.00
2022-12-03T23:01:41.389Z,21.03
2022-12-03T23:04:29.915Z,19.77
2022-12-03T23:07:19.713Z,20.13
2022-12-03T23:10:09.269Z,18.60
2022-12-03T23:12:57.787Z,19.47
2022-12-03T23:15:47.264Z,19.87
2022-12-03T23:18:35.733Z,19.37
2022-12-03T23:21:29.749Z,19.63
2022-12-03T23:24:20.217Z,18.90
2022-12-03T23:27:08.637Z,20.47
2022-12-03T23:29:57.276Z,19.03
2022-12-03T23:32:46.254Z,20.77
2022-12-03T23:35:34.962Z,18.97
2022-12-03T23:38:23.521Z,18.03
2022-12-03T23:41:15.238Z,19.97
2022-12-03T23:44:03.789Z,20.03
2022-12-03T23:46:52.358Z,19.80
2022-12-03T23:49:40.893Z,19.10
2022-12-03T23:52:29.443Z,21.27
2022-12-03T23:55:18.038Z,18.70
2022-12-03T23:58:07.894Z,19.87
